Terminal Aerodrome Forecast
Issued by NWS Greer, SC

Home | Current Version | Previous Version | Text Only | Print | Product List | Glossary On
Versions: 1 2 3 4 5 6 7 8 9 10 11 12 13 14 15 16 17 18 19 20 21 22 23
000
FTUS42 KGSP 180500
TAFGSP
TAF
KGSP 180540Z 1806/1906 00000KT 4SM BR BKN050
      TEMPO 1810/1812 2SM BR FEW005 SCT015
     FM181200 05003KT 5SM BR BKN015
     FM181600 06004KT P6SM BKN027
     FM181800 10003KT P6SM SCT040=

USA.gov is the U.S. government's official web portal to all federal, state and local government web resources and services.